Time;durP1;ratioP1;P1;durP2;ratioP2;P2;SDS_P1;SDS_P2;PMS_P1;PMS_P2;Temp;Humidity;BMP_temperature;BMP_pressure;BME280_temperature;BME280_humidity;BME280_pressure;Samples;Min_cycle;Max_cycle;Signal;HPM_P1;HPM_P2
2022/06/02 08:22:08;;;;;;;4.95;2.50;;;21.50;43.90;;;;;;5884790;19;3135765;-74
2022/06/02 08:25:02;;;;;;;6.65;2.17;;;21.60;43.80;;;;;;7376631;19;20018;-75
2022/06/02 08:43:13;;;;;;;9.77;2.13;;;22.20;42.90;;;;;;7392847;19;20015;-77
2022/06/02 08:49:25;;;;;;;7.68;1.92;;;22.30;42.80;;;;;;7390772;19;20552;-78
2022/06/02 08:52:32;;;;;;;9.05;1.98;;;22.30;42.60;;;;;;7395399;19;20109;-79
2022/06/02 08:55:31;;;;;;;6.15;2.10;;;22.30;42.50;;;;;;7388868;19;20125;-79
2022/06/02 08:58:44;;;;;;;5.10;2.00;;;22.30;42.40;;;;;;7392890;19;20463;-79
2022/06/02 09:01:21;;;;;;;5.80;1.63;;;22.30;43.30;;;;;;7390883;19;20090;-78
2022/06/02 09:04:22;;;;;;;6.18;2.00;;;22.40;42.80;;;;;;7391023;19;20627;-79
2022/06/02 09:07:38;;;;;;;12.45;1.80;;;22.40;42.70;;;;;;7392921;19;20025;-78
2022/06/02 09:10:34;;;;;;;5.78;2.10;;;22.40;42.70;;;;;;7389176;19;20862;-78
2022/06/02 09:13:40;;;;;;;6.00;1.92;;;22.50;42.80;;;;;;7382344;19;20067;-80
2022/06/02 09:16:22;;;;;;;9.52;2.03;;;22.50;42.40;;;;;;7388094;19;20022;-79
2022/06/02 09:19:18;;;;;;;8.45;2.13;;;22.50;42.60;;;;;;7391262;19;20014;-77
2022/06/02 09:22:04;;;;;;;8.82;1.90;;;22.50;42.80;;;;;;7387057;19;20015;-78
2022/06/02 09:24:43;;;;;;;4.82;2.08;;;22.60;42.60;;;;;;7390245;19;20029;-78
2022/06/02 09:27:34;;;;;;;5.28;1.80;;;22.60;42.80;;;;;;7391186;19;20030;-78
2022/06/02 09:30:12;;;;;;;4.22;1.50;;;22.70;42.90;;;;;;7391876;19;20373;-78
2022/06/02 09:33:33;;;;;;;10.18;1.67;;;22.70;42.20;;;;;;7393137;19;20105;-79
2022/06/02 09:35:57;;;;;;;4.03;1.80;;;22.70;42.70;;;;;;7390106;19;20026;-79
2022/06/02 09:38:56;;;;;;;207.07;149.30;;;22.80;42.40;;;;;;7389754;19;20463;-76
2022/06/02 09:41:41;;;;;;;12.88;3.45;;;22.70;42.40;;;;;;7389585;19;20350;-80
2022/06/02 09:44:24;;;;;;;6.28;1.80;;;22.60;42.30;;;;;;7388048;19;20027;-81
2022/06/02 09:47:20;;;;;;;6.90;1.60;;;22.50;42.60;;;;;;7392375;19;20019;-79
2022/06/02 09:50:16;;;;;;;5.15;1.90;;;22.60;42.80;;;;;;7396416;19;20014;-80
2022/06/02 09:53:16;;;;;;;7.95;1.70;;;22.60;42.90;;;;;;7393583;19;20011;-80
2022/06/02 09:56:04;;;;;;;5.50;1.90;;;22.60;42.60;;;;;;7395856;19;20027;-81
2022/06/02 09:58:57;;;;;;;6.10;1.40;;;22.70;42.10;;;;;;7397478;19;20030;-80
2022/06/02 10:01:47;;;;;;;3.63;1.73;;;22.70;42.60;;;;;;7395675;19;20750;-82
2022/06/02 10:04:49;;;;;;;3.47;1.70;;;22.70;42.90;;;;;;7397391;19;20034;-82
2022/06/02 10:07:31;;;;;;;4.35;2.05;;;22.70;42.70;;;;;;7397538;19;20085;-80
2022/06/02 10:10:31;;;;;;;3.95;1.75;;;22.80;42.20;;;;;;7394527;19;20018;-81
2022/06/02 10:13:30;;;;;;;3.90;1.60;;;22.80;42.10;;;;;;7392909;19;20018;-80
2022/06/02 10:16:22;;;;;;;3.15;1.63;;;22.90;41.90;;;;;;7394447;19;20023;-80
2022/06/02 10:19:10;;;;;;;3.90;1.67;;;22.90;41.90;;;;;;7396928;19;20094;-80
2022/06/02 10:21:54;;;;;;;3.40;1.70;;;23.00;42.10;;;;;;7396171;19;20125;-80
2022/06/02 10:24:56;;;;;;;5.70;1.65;;;23.00;41.60;;;;;;7392980;19;20023;-80
2022/06/02 10:27:48;;;;;;;10.05;1.52;;;23.00;41.90;;;;;;7396555;19;20042;-80
2022/06/02 10:30:37;;;;;;;;;;;23.00;41.80;;;;;;7397403;19;20011;-78
2022/06/02 10:33:50;;;;;;;2.20;1.50;;;23.10;41.60;;;;;;7398424;19;20293;-80
2022/06/02 10:36:41;;;;;;;4.97;1.50;;;23.10;40.90;;;;;;7390528;19;20142;-79
2022/06/02 10:39:38;;;;;;;1.75;1.38;;;23.20;40.90;;;;;;7392200;19;20097;-78
2022/06/02 10:42:24;;;;;;;7.35;1.90;;;23.20;40.70;;;;;;7391445;19;20022;-79
2022/06/02 10:45:20;;;;;;;6.70;1.60;;;23.20;40.90;;;;;;7390957;19;20085;-79
2022/06/02 10:48:27;;;;;;;6.63;1.70;;;23.20;40.30;;;;;;7391850;19;20831;-79
2022/06/02 10:51:28;;;;;;;7.28;1.25;;;23.30;40.40;;;;;;7389845;19;20469;-80
2022/06/02 10:54:27;;;;;;;18.13;6.35;;;23.40;40.50;;;;;;7388836;19;20093;-79
2022/06/02 10:57:18;;;;;;;4.90;1.40;;;23.50;40.90;;;;;;7391543;19;20025;-79
2022/06/02 11:00:07;;;;;;;2.83;1.88;;;23.70;40.20;;;;;;7388920;19;20628;-79
2022/06/02 11:03:17;;;;;;;3.60;1.85;;;23.80;39.40;;;;;;7388388;19;20473;-78
2022/06/02 11:06:19;;;;;;;1.40;1.30;;;23.90;39.60;;;;;;7393538;19;20014;-79
2022/06/02 11:09:35;;;;;;;4.50;1.30;;;24.00;38.60;;;;;;7399725;19;20267;-85
2022/06/02 11:12:46;;;;;;;3.28;1.33;;;24.10;38.80;;;;;;7396529;19;20048;-83
2022/06/02 11:15:42;;;;;;;2.90;1.40;;;24.20;39.20;;;;;;7395463;19;20121;-83
2022/06/02 11:18:32;;;;;;;7.63;1.20;;;24.30;38.70;;;;;;7392522;19;20014;-83
2022/06/02 11:21:33;;;;;;;3.25;1.52;;;24.50;38.60;;;;;;7389870;19;20017;-80
2022/06/02 11:24:16;;;;;;;2.10;1.40;;;24.70;36.40;;;;;;7389484;19;20013;-79
2022/06/02 11:27:06;;;;;;;6.63;1.33;;;24.80;36.70;;;;;;7398225;19;20098;-84
2022/06/02 11:30:06;;;;;;;375.40;239.90;;;24.90;36.30;;;;;;7389083;19;20018;-84
2022/06/02 11:32:57;;;;;;;4.20;3.33;;;25.10;36.30;;;;;;7393648;19;20117;-82
2022/06/02 11:35:41;;;;;;;2.38;1.20;;;25.20;36.90;;;;;;7393805;19;20019;-83
2022/06/02 11:38:37;;;;;;;3.83;1.20;;;25.20;36.20;;;;;;7392685;19;20014;-84
2022/06/02 11:41:24;;;;;;;1.83;1.10;;;25.30;35.50;;;;;;7390890;19;20037;-82
2022/06/02 11:44:07;;;;;;;2.53;1.15;;;25.40;35.30;;;;;;7390470;19;20018;-83
2022/06/02 11:46:57;;;;;;;1.20;1.10;;;25.30;34.70;;;;;;7393150;19;20045;-83
2022/06/02 11:49:54;;;;;;;3.50;1.20;;;25.20;34.50;;;;;;7396347;19;20026;-84
2022/06/02 11:52:56;;;;;;;3.58;1.00;;;25.10;35.40;;;;;;7395199;19;20018;-82
2022/06/02 11:55:32;;;;;;;3.63;1.30;;;25.00;36.20;;;;;;7402236;19;20011;-84
2022/06/02 11:58:26;;;;;;;2.30;1.25;;;25.00;36.00;;;;;;7402881;19;20086;-80
2022/06/02 12:01:21;;;;;;;3.38;1.20;;;25.00;35.70;;;;;;7399935;19;20011;-82
2022/06/02 12:04:24;;;;;;;1.42;1.23;;;25.10;35.80;;;;;;7397687;19;20512;-81
2022/06/02 12:07:15;;;;;;;5.45;1.42;;;25.20;36.30;;;;;;7395456;19;20014;-81
2022/06/02 12:10:10;;;;;;;2.28;1.23;;;25.20;35.70;;;;;;7395370;19;20014;-82
2022/06/02 12:12:57;;;;;;;2.55;1.20;;;25.30;35.80;;;;;;7395903;19;20144;-81
2022/06/02 12:15:57;;;;;;;1.70;1.20;;;25.30;34.60;;;;;;7396417;19;20102;-82
2022/06/02 12:18:34;;;;;;;4.53;1.33;;;25.30;34.70;;;;;;7395830;19;20327;-83
2022/06/02 12:21:25;;;;;;;2.35;1.20;;;25.30;35.10;;;;;;7397799;19;20192;-82
2022/06/02 12:24:01;;;;;;;;;;;25.30;34.50;;;;;;7396170;19;20050;-81
2022/06/02 12:26:42;;;;;;;0.98;0.90;;;25.50;35.20;;;;;;7406606;19;19915;-82
2022/06/02 12:29:38;;;;;;;6.63;1.15;;;25.70;35.20;;;;;;7405786;19;20023;-82
2022/06/02 12:32:37;;;;;;;2.67;1.42;;;25.70;35.20;;;;;;7403637;19;20022;-84
2022/06/02 12:35:20;;;;;;;8.88;1.35;;;25.70;34.80;;;;;;7400933;19;20017;-84
2022/06/02 12:38:16;;;;;;;4.75;1.15;;;25.80;34.50;;;;;;7395888;19;20089;-81
2022/06/02 12:41:00;;;;;;;2.70;1.10;;;25.70;35.10;;;;;;7395058;19;20046;-84
2022/06/02 12:44:20;;;;;;;3.10;1.30;;;25.70;35.10;;;;;;7395064;19;20025;-84
2022/06/02 12:47:16;;;;;;;1.77;1.03;;;25.80;35.10;;;;;;7395402;19;20010;-82
2022/06/02 12:50:22;;;;;;;1.70;1.10;;;25.80;34.20;;;;;;7396812;19;20019;-84
2022/06/02 12:53:44;;;;;;;2.03;1.10;;;25.80;33.40;;;;;;7406522;19;20031;-83
2022/06/02 12:56:45;;;;;;;2.03;1.02;;;25.90;33.30;;;;;;7392071;19;20642;-82
2022/06/02 12:59:28;;;;;;;;;;;26.00;32.60;;;;;;7399750;19;20161;-87
2022/06/02 13:02:08;;;;;;;2.80;1.10;;;26.10;32.90;;;;;;7397329;19;19943;-83
2022/06/02 13:05:19;;;;;;;3.85;1.27;;;26.10;33.60;;;;;;7397120;19;20029;-84
2022/06/02 13:08:32;;;;;;;5.20;1.15;;;26.20;33.60;;;;;;7393168;19;20104;-83
2022/06/02 13:11:23;;;;;;;2.28;1.20;;;26.20;33.00;;;;;;7394943;19;20019;-82
2022/06/02 13:14:46;;;;;;;6.57;1.05;;;26.20;33.00;;;;;;7394298;19;20661;-84
2022/06/02 13:17:52;;;;;;;5.85;1.30;;;26.20;33.30;;;;;;7391739;19;20021;-84
2022/06/02 13:20:38;;;;;;;1.50;1.00;;;26.30;33.30;;;;;;7396714;19;20010;-84
2022/06/02 13:23:42;;;;;;;7.55;1.10;;;26.30;33.50;;;;;;7401705;19;20023;-77
2022/06/02 13:26:55;;;;;;;15.80;9.32;;;26.30;33.60;;;;;;7389512;19;20697;-77
2022/06/02 13:29:54;;;;;;;4.85;2.30;;;26.30;32.70;;;;;;7391701;19;20018;-79
2022/06/02 13:32:51;;;;;;;2.25;1.23;;;26.30;33.00;;;;;;7391945;19;20018;-79
2022/06/02 13:35:53;;;;;;;2.22;1.13;;;26.40;32.60;;;;;;7394340;19;20524;-79
2022/06/02 13:39:05;;;;;;;1.77;1.20;;;26.50;32.00;;;;;;7393457;19;20448;-80
2022/06/02 13:41:57;;;;;;;2.80;0.93;;;26.40;32.50;;;;;;7392991;19;20425;-79
2022/06/02 13:45:07;;;;;;;6.05;1.00;;;26.50;31.90;;;;;;7389511;19;20118;-78
2022/06/02 13:48:23;;;;;;;1.20;1.00;;;26.50;32.00;;;;;;7391709;19;20018;-79
2022/06/02 13:51:24;;;;;;;4.57;1.20;;;26.50;31.30;;;;;;7392361;19;20033;-78
2022/06/02 14:00:25;;;;;;;3.22;1.00;;;26.70;30.40;;;;;;7388709;19;20071;-78
2022/06/02 14:03:09;;;;;;;2.50;1.10;;;26.70;30.60;;;;;;7389776;19;20086;-78
2022/06/02 14:05:49;;;;;;;2.90;1.10;;;26.70;30.20;;;;;;7388422;19;20021;-77
2022/06/02 14:08:43;;;;;;;5.17;1.13;;;26.80;31.20;;;;;;7389167;19;20025;-77
2022/06/02 14:11:40;;;;;;;3.35;1.10;;;26.90;30.70;;;;;;7387933;19;20095;-77
2022/06/02 14:14:40;;;;;;;6.22;1.10;;;26.90;30.40;;;;;;7388214;19;20047;-78
2022/06/02 14:17:22;;;;;;;5.38;1.20;;;27.00;30.80;;;;;;7389387;19;20023;-80
2022/06/02 14:20:28;;;;;;;3.80;1.17;;;27.10;31.00;;;;;;7387608;19;20087;-79
2022/06/02 14:23:14;;;;;;;4.95;1.00;;;27.10;31.00;;;;;;7391560;19;20010;-79
2022/06/02 14:25:52;;;;;;;1.85;0.80;;;27.10;30.30;;;;;;7388970;19;20015;-80
2022/06/02 14:28:41;;;;;;;2.65;1.08;;;27.20;30.90;;;;;;7387422;19;20044;-78
2022/06/02 14:31:18;;;;;;;7.32;1.02;;;27.20;30.60;;;;;;7387846;19;20023;-80
2022/06/02 14:33:51;;;;;;;1.77;1.00;;;27.30;31.40;;;;;;7390602;19;20033;-79
2022/06/02 14:36:29;;;;;;;2.72;1.00;;;27.30;31.10;;;;;;7393929;19;20039;-79
2022/06/02 14:39:16;;;;;;;1.58;1.00;;;27.40;31.30;;;;;;7390374;19;20042;-80
2022/06/02 14:42:12;;;;;;;5.57;1.10;;;27.40;31.00;;;;;;7391632;19;20018;-80
2022/06/02 14:44:51;;;;;;;3.85;1.17;;;27.50;30.70;;;;;;7392047;19;20492;-79
2022/06/02 14:47:42;;;;;;;4.45;1.00;;;27.40;30.40;;;;;;7391482;19;20018;-78
2022/06/02 14:50:31;;;;;;;1.25;1.00;;;27.40;30.60;;;;;;7392601;19;20118;-79
2022/06/02 14:53:16;;;;;;;1.40;0.88;;;27.50;30.90;;;;;;7391588;19;20345;-78
2022/06/02 14:55:54;;;;;;;4.75;1.00;;;27.50;30.70;;;;;;7390348;19;20102;-79
2022/06/02 14:58:35;;;;;;;4.38;0.90;;;27.60;30.90;;;;;;7390675;19;21532;-79
2022/06/02 15:01:16;;;;;;;2.40;0.98;;;27.70;30.90;;;;;;7390513;19;20025;-78
2022/06/02 15:04:15;;;;;;;1.52;1.13;;;27.80;30.80;;;;;;7392005;19;20031;-78
2022/06/02 15:07:07;;;;;;;1.33;0.85;;;27.90;30.10;;;;;;7394204;19;20018;-78
2022/06/02 15:09:52;;;;;;;0.98;0.80;;;27.90;30.00;;;;;;7397360;19;20109;-79
2022/06/02 15:12:39;;;;;;;3.05;1.25;;;28.00;29.80;;;;;;7391501;19;20014;-80
2022/06/02 15:15:24;;;;;;;6.18;1.00;;;28.00;30.00;;;;;;7393783;19;20085;-80
2022/06/02 15:18:07;;;;;;;3.83;1.10;;;28.10;30.10;;;;;;7391985;19;20162;-78
2022/06/02 15:20:56;;;;;;;2.53;0.90;;;28.30;30.20;;;;;;7391763;19;20090;-78
2022/06/02 15:23:54;;;;;;;2.58;1.10;;;28.40;29.50;;;;;;7401260;19;20026;-78
2022/06/02 15:26:54;;;;;;;2.72;1.17;;;28.40;29.50;;;;;;7401199;19;20715;-79
2022/06/02 15:29:49;;;;;;;2.30;0.98;;;28.50;29.90;;;;;;7399787;19;20011;-78
2022/06/02 15:32:50;;;;;;;1.98;0.90;;;28.50;29.30;;;;;;7401060;19;20098;-81
2022/06/02 15:35:40;;;;;;;2.78;1.00;;;28.50;29.10;;;;;;7399382;19;20023;-79
2022/06/02 15:38:48;;;;;;;1.92;1.00;;;28.60;29.20;;;;;;7398525;19;20505;-80
2022/06/02 15:41:46;;;;;;;5.15;1.20;;;29.10;28.90;;;;;;7400758;19;20018;-79
2022/06/02 15:44:43;;;;;;;1.85;0.80;;;30.10;28.20;;;;;;7398516;19;20452;-80
2022/06/02 15:47:49;;;;;;;1.15;0.80;;;31.40;27.20;;;;;;7399236;19;20042;-80
2022/06/02 15:50:57;;;;;;;1.77;1.00;;;32.70;26.50;;;;;;7399614;19;20014;-79
2022/06/02 15:53:55;;;;;;;5.93;0.90;;;32.80;26.60;;;;;;7392424;19;20023;-79
2022/06/02 15:56:53;;;;;;;6.25;0.90;;;33.00;25.90;;;;;;7397635;19;20018;-79
2022/06/02 15:59:55;;;;;;;2.80;1.20;;;33.30;25.40;;;;;;7395714;19;20027;-78
2022/06/02 16:02:56;;;;;;;1.05;0.88;;;33.40;25.00;;;;;;7392871;19;20170;-80
2022/06/02 16:05:37;;;;;;;1.85;1.00;;;33.20;25.20;;;;;;7393150;19;20499;-81
2022/06/02 16:08:42;;;;;;;0.98;0.85;;;33.30;25.60;;;;;;7393436;19;21964;-82
2022/06/02 16:11:44;;;;;;;1.45;0.70;;;33.60;25.10;;;;;;7393004;19;20054;-81
2022/06/02 16:14:47;;;;;;;1.75;0.93;;;33.30;25.30;;;;;;7393819;19;20011;-81
2022/06/02 16:27:48;;;;;;;1.52;0.70;;;31.70;26.80;;;;;;7424342;19;20380;-80
2022/06/02 16:30:23;;;;;;;98.70;87.97;;;32.30;26.40;;;;;;7427695;19;20030;-79
2022/06/02 16:33:17;;;;;;;33.80;29.80;;;33.30;26.10;;;;;;7427852;19;20720;-78
2022/06/02 16:35:59;;;;;;;3.00;2.65;;;34.40;25.00;;;;;;7440383;19;20029;-80
2022/06/02 16:38:36;;;;;;;1.17;1.08;;;35.60;24.90;;;;;;7433374;19;20018;-79
2022/06/02 16:41:24;;;;;;;1.80;0.90;;;36.50;23.20;;;;;;7430516;19;20524;-78
2022/06/02 16:44:13;;;;;;;4.10;0.93;;;36.90;23.50;;;;;;7437189;19;20094;-80
2022/06/02 16:47:04;;;;;;;1.23;0.80;;;36.70;22.90;;;;;;7433931;19;20018;-80
2022/06/02 16:49:54;;;;;;;1.45;0.85;;;35.90;23.20;;;;;;7428267;19;20073;-81
2022/06/02 16:52:45;;;;;;;1.80;0.90;;;34.80;23.70;;;;;;7427043;19;20085;-79
2022/06/02 16:55:27;;;;;;;2.28;0.93;;;33.80;24.50;;;;;;7421753;19;20010;-80
2022/06/02 16:58:24;;;;;;;4.28;0.80;;;33.10;25.00;;;;;;7427818;19;20038;-88
2022/06/02 17:01:05;;;;;;;2.55;0.70;;;32.90;25.40;;;;;;7414489;19;20362;-84
2022/06/02 17:04:04;;;;;;;1.50;0.73;;;33.50;25.40;;;;;;7443910;19;20356;-86
2022/06/02 17:07:02;;;;;;;1.95;1.00;;;34.90;24.50;;;;;;7439014;19;20018;-85
2022/06/02 17:12:48;;;;;;;;;;;37.00;23.50;;;;;;7445602;19;20089;-83
2022/06/02 17:16:03;;;;;;;3.33;0.98;;;37.80;22.60;;;;;;7441146;19;19951;-84
2022/06/02 17:18:55;;;;;;;237.32;199.55;;;38.60;21.70;;;;;;7430031;19;20053;-77
2022/06/02 17:21:33;;;;;;;109.55;97.65;;;38.20;22.10;;;;;;7424153;19;20591;-78
2022/06/02 17:24:22;;;;;;;5.03;3.78;;;38.00;22.20;;;;;;7422288;19;20082;-78
2022/06/02 17:27:07;;;;;;;1.20;1.10;;;37.90;22.60;;;;;;7421959;19;20090;-77
2022/06/02 17:30:00;;;;;;;1.35;0.90;;;37.10;22.70;;;;;;7429665;19;20022;-80
2022/06/02 17:32:58;;;;;;;0.80;0.57;;;36.50;23.10;;;;;;7411704;19;20086;-77
2022/06/02 17:36:00;;;;;;;5.65;0.93;;;35.60;23.50;;;;;;7424140;19;20030;-79
2022/06/02 17:39:04;;;;;;;2.83;0.90;;;35.00;24.20;;;;;;7392862;19;20023;-80
2022/06/02 17:41:55;;;;;;;1.48;0.82;;;35.00;24.20;;;;;;7394038;19;20035;-79
2022/06/02 17:44:33;;;;;;;;;;;34.20;24.60;;;;;;7395189;19;20025;-78
2022/06/02 17:47:23;;;;;;;80.55;72.28;;;33.60;25.00;;;;;;7395961;19;19923;-78
2022/06/02 17:50:24;;;;;;;2.28;1.80;;;32.80;25.90;;;;;;7392162;19;20515;-78
2022/06/02 17:53:07;;;;;;;3.28;1.20;;;32.70;26.50;;;;;;7388839;19;20030;-79
2022/06/02 17:56:14;;;;;;;28.30;25.40;;;32.90;26.30;;;;;;7388872;19;20015;-80
2022/06/02 17:59:17;;;;;;;16.33;9.90;;;33.10;25.90;;;;;;7389330;19;20018;-78
2022/06/02 18:02:07;;;;;;;5.38;2.20;;;32.60;26.20;;;;;;7388146;19;20022;-80
2022/06/02 18:04:48;;;;;;;18.50;2.57;;;32.00;27.60;;;;;;7387529;19;20101;-79
2022/06/02 18:07:34;;;;;;;3.73;1.93;;;31.80;28.40;;;;;;7385283;19;20014;-80
2022/06/02 18:23:51;;;;;;;6.25;2.08;;;34.20;26.60;;;;;;7368942;19;20031;-82
2022/06/02 18:26:22;;;;;;;4.18;1.70;;;33.90;27.10;;;;;;7395416;19;20014;-79
2022/06/02 18:29:24;;;;;;;2.22;1.17;;;34.20;28.00;;;;;;7397043;19;20019;-80
2022/06/02 18:32:10;;;;;;;5.40;1.33;;;34.60;27.90;;;;;;7397484;19;20019;-79
2022/06/02 18:35:08;;;;;;;2.15;1.50;;;35.20;27.60;;;;;;7398602;19;20024;-80
2022/06/02 18:38:00;;;;;;;2.50;1.60;;;35.40;27.70;;;;;;7394596;19;20635;-79
2022/06/02 18:40:57;;;;;;;2.47;1.40;;;35.50;27.70;;;;;;7396894;19;20130;-80
2022/06/02 18:44:03;;;;;;;6.03;1.38;;;35.50;27.70;;;;;;7396992;19;20014;-81
2022/06/02 18:47:07;;;;;;;236.25;210.82;;;35.50;28.30;;;;;;7396512;19;20013;-82
2022/06/02 18:50:17;;;;;;;45.05;36.33;;;35.30;28.10;;;;;;7396003;19;20094;-80
2022/06/02 18:53:25;;;;;;;10.18;2.53;;;35.20;28.20;;;;;;7397560;19;20018;-79
2022/06/02 18:56:11;;;;;;;3.40;1.27;;;35.10;28.40;;;;;;7388596;19;20116;-80
2022/06/02 18:59:07;;;;;;;5.50;1.40;;;34.80;28.40;;;;;;7390990;19;20028;-79
2022/06/02 19:01:47;;;;;;;3.50;1.60;;;34.50;28.60;;;;;;7389384;19;20051;-79
2022/06/02 19:05:09;;;;;;;5.18;3.50;;;34.30;28.70;;;;;;7391991;19;20030;-79
2022/06/02 19:14:14;;;;;;;2.47;1.50;;;31.70;30.20;;;;;;7390986;19;20043;-79
2022/06/02 19:17:22;;;;;;;1.95;1.30;;;30.80;31.60;;;;;;7389100;19;20792;-78
2022/06/02 19:20:20;;;;;;;3.38;1.20;;;30.10;32.70;;;;;;7390049;19;20084;-78
2022/06/02 19:23:09;;;;;;;6.22;1.67;;;29.40;33.80;;;;;;7386217;19;20022;-79
2022/06/02 19:25:45;;;;;;;1.17;1.08;;;28.80;34.70;;;;;;7389131;19;20022;-78
2022/06/02 19:28:44;;;;;;;2.65;1.30;;;28.30;35.20;;;;;;7387049;19;20018;-78
2022/06/02 19:31:25;;;;;;;2.80;1.20;;;27.90;35.90;;;;;;7387469;19;20029;-78
2022/06/02 19:34:03;;;;;;;1.65;1.13;;;27.60;36.60;;;;;;7388846;19;20018;-79
2022/06/02 19:36:47;;;;;;;4.30;1.20;;;27.20;36.90;;;;;;7387816;19;20069;-78
2022/06/02 19:39:32;;;;;;;3.10;1.42;;;26.90;37.10;;;;;;7391456;19;20032;-82
2022/06/02 19:42:08;;;;;;;3.13;1.30;;;26.70;37.40;;;;;;7392546;19;20026;-78
2022/06/02 19:44:46;;;;;;;3.95;1.30;;;26.50;37.30;;;;;;7393377;19;20026;-79
2022/06/02 19:47:21;;;;;;;14.65;9.55;;;26.40;37.50;;;;;;7389391;19;20295;-79
2022/06/02 19:50:02;;;;;;;3.78;2.70;;;26.30;37.90;;;;;;7387732;19;20029;-82
2022/06/02 19:52:42;;;;;;;7.53;2.03;;;26.10;38.30;;;;;;7387803;19;20441;-81
2022/06/02 19:55:42;;;;;;;12.40;5.68;;;26.00;38.60;;;;;;7390093;19;20535;-79
2022/06/02 19:58:21;;;;;;;4.68;1.95;;;25.90;38.90;;;;;;7394888;19;20026;-80
2022/06/02 20:01:06;;;;;;;8.95;3.97;;;25.80;38.80;;;;;;7393927;19;20100;-79
2022/06/02 20:03:43;;;;;;;5.47;2.53;;;25.70;39.10;;;;;;7396695;19;20103;-84
2022/06/02 20:06:21;;;;;;;4.07;2.08;;;25.60;39.30;;;;;;7393268;19;20019;-77
2022/06/02 20:08:52;;;;;;;3.17;2.17;;;25.50;39.40;;;;;;7391890;19;20431;-78
2022/06/02 20:11:32;;;;;;;8.77;2.05;;;25.50;39.30;;;;;;7391630;19;20028;-78
2022/06/02 20:14:04;;;;;;;3.72;1.75;;;25.40;39.60;;;;;;7389035;19;20015;-78
2022/06/02 20:16:38;;;;;;;2.42;1.50;;;25.40;39.70;;;;;;7390066;19;20014;-78
2022/06/02 20:19:16;;;;;;;4.50;1.95;;;25.30;39.60;;;;;;7390663;19;20018;-78
2022/06/02 20:21:51;;;;;;;5.07;1.90;;;25.30;39.60;;;;;;7392619;19;20086;-78
2022/06/02 20:24:26;;;;;;;6.70;2.05;;;25.20;39.90;;;;;;7394386;19;20158;-77
2022/06/02 20:27:07;;;;;;;5.38;1.65;;;25.20;39.70;;;;;;7398478;19;20090;-78
2022/06/02 20:30:06;;;;;;;3.20;1.63;;;25.10;39.10;;;;;;7397290;19;20393;-77
2022/06/02 20:32:46;;;;;;;2.63;1.55;;;25.00;39.60;;;;;;7394937;19;20038;-77
2022/06/02 20:35:23;;;;;;;4.35;1.70;;;25.00;39.50;;;;;;7393781;19;20056;-77
2022/06/02 20:38:32;;;;;;;2.35;1.70;;;24.90;39.40;;;;;;7392497;19;20086;-77
2022/06/02 20:41:21;;;;;;;1.85;1.60;;;24.90;39.40;;;;;;7393151;19;20042;-77
2022/06/02 20:44:07;;;;;;;3.33;1.50;;;24.90;40.00;;;;;;7391365;19;20031;-76
2022/06/02 20:46:57;;;;;;;8.60;2.10;;;24.90;39.50;;;;;;7387887;19;20076;-78
2022/06/02 20:49:30;;;;;;;4.65;1.85;;;24.90;39.30;;;;;;7386962;19;20014;-77
2022/06/02 20:52:02;;;;;;;2.33;2.00;;;24.80;39.00;;;;;;7389051;19;20022;-77
2022/06/02 20:54:43;;;;;;;6.53;2.40;;;24.70;39.10;;;;;;7388547;19;20038;-77
2022/06/02 20:57:20;;;;;;;4.75;2.38;;;24.70;39.50;;;;;;7389892;19;20419;-78
2022/06/02 20:59:56;;;;;;;14.77;6.75;;;24.70;39.60;;;;;;7391496;19;20077;-78
2022/06/02 21:02:35;;;;;;;493.33;329.35;;;24.70;39.40;;;;;;7390813;19;20026;-82
2022/06/02 21:05:14;;;;;;;180.18;131.38;;;24.70;39.30;;;;;;7393664;19;20027;-79
2022/06/02 21:07:48;;;;;;;33.63;22.02;;;24.60;39.60;;;;;;7390619;19;20093;-79
2022/06/02 21:10:30;;;;;;;5.35;2.30;;;24.60;40.00;;;;;;7392847;19;20039;-76
2022/06/02 21:13:05;;;;;;;3.60;2.20;;;24.60;39.50;;;;;;7391770;19;20644;-77
2022/06/02 21:16:01;;;;;;;5.43;1.73;;;24.60;39.20;;;;;;7394163;19;20345;-77
2022/06/02 21:18:38;;;;;;;3.30;1.80;;;24.60;40.00;;;;;;7395628;19;20006;-77
2022/06/02 21:21:14;;;;;;;4.00;2.38;;;24.60;39.00;;;;;;7393108;19;20453;-76
2022/06/02 21:23:43;;;;;;;2.20;1.80;;;24.50;39.20;;;;;;7392656;19;20019;-77
2022/06/02 21:26:22;;;;;;;3.65;1.80;;;24.50;39.00;;;;;;7397685;19;20030;-80
2022/06/02 21:28:51;;;;;;;4.50;1.90;;;24.50;39.00;;;;;;7363527;19;20018;-78
2022/06/02 21:31:30;;;;;;;3.28;2.20;;;24.50;38.90;;;;;;7392271;19;20039;-77
2022/06/02 21:34:01;;;;;;;6.75;1.88;;;24.40;39.00;;;;;;7371152;19;20015;-77
2022/06/02 21:36:31;;;;;;;2.00;1.60;;;24.40;38.80;;;;;;7371175;19;20014;-77
2022/06/02 21:39:02;;;;;;;3.92;2.38;;;24.50;39.00;;;;;;7372604;19;20015;-77
2022/06/02 21:41:42;;;;;;;4.18;1.98;;;24.40;39.00;;;;;;7370633;19;20031;-77
2022/06/02 21:44:25;;;;;;;4.45;2.08;;;24.40;38.80;;;;;;7367778;19;20052;-76
2022/06/02 21:47:04;;;;;;;3.83;1.80;;;24.40;39.20;;;;;;7371041;19;20433;-76
2022/06/02 21:49:41;;;;;;;4.10;2.00;;;24.40;39.00;;;;;;7373204;19;20307;-76
2022/06/02 21:52:17;;;;;;;6.47;1.88;;;24.40;38.90;;;;;;7390934;19;20457;-76
2022/06/02 21:55:10;;;;;;;3.22;1.60;;;24.40;39.10;;;;;;7372025;19;20604;-76
2022/06/02 21:57:52;;;;;;;2.90;1.85;;;24.40;39.00;;;;;;7371994;19;20014;-76
2022/06/02 22:00:50;;;;;;;4.53;1.70;;;24.40;39.20;;;;;;7371648;19;20098;-77
2022/06/02 22:03:27;;;;;;;2.92;1.60;;;24.30;39.40;;;;;;7373853;19;20018;-76
2022/06/02 22:06:02;;;;;;;4.97;1.70;;;24.30;39.50;;;;;;7370320;19;20026;-77
2022/06/02 22:08:36;;;;;;;2.90;1.73;;;24.30;39.90;;;;;;7373001;19;20094;-77
2022/06/02 22:11:17;;;;;;;3.78;1.90;;;24.20;39.40;;;;;;7372966;19;20010;-77
2022/06/02 22:13:50;;;;;;;4.50;1.70;;;24.10;39.60;;;;;;7372337;19;20023;-76
2022/06/02 22:16:23;;;;;;;3.83;1.70;;;24.10;39.70;;;;;;7392763;19;20078;-77
2022/06/02 22:19:06;;;;;;;2.92;1.75;;;24.00;39.70;;;;;;7372520;19;20014;-76
2022/06/02 22:21:43;;;;;;;4.88;2.63;;;24.00;39.50;;;;;;7373234;19;20102;-77
2022/06/02 22:24:25;;;;;;;5.10;3.00;;;24.00;39.70;;;;;;7370994;19;20078;-76
2022/06/02 22:27:02;;;;;;;7.97;3.13;;;23.90;39.60;;;;;;7371075;19;20018;-77
2022/06/02 22:29:44;;;;;;;5.80;3.10;;;23.90;39.40;;;;;;7372044;19;20141;-78
2022/06/02 22:32:52;;;;;;;6.00;3.55;;;23.90;40.50;;;;;;7371916;19;20042;-76
2022/06/02 22:35:37;;;;;;;11.60;5.82;;;23.90;39.80;;;;;;7372676;19;20023;-77
2022/06/02 22:38:30;;;;;;;6.35;3.88;;;23.80;39.90;;;;;;7369396;19;20018;-75
2022/06/02 22:41:12;;;;;;;6.03;2.75;;;23.80;39.70;;;;;;7369699;19;20073;-76
2022/06/02 22:44:03;;;;;;;3.30;1.80;;;23.80;39.90;;;;;;7370497;19;20018;-76
2022/06/02 22:47:08;;;;;;;3.90;1.92;;;23.70;39.90;;;;;;7369618;19;20532;-76
2022/06/02 22:49:50;;;;;;;2.47;1.60;;;23.70;39.70;;;;;;7366411;19;20014;-77
2022/06/02 22:52:39;;;;;;;4.45;1.80;;;23.70;40.20;;;;;;7387247;19;20596;-76
2022/06/02 22:55:34;;;;;;;2.33;1.55;;;23.60;40.20;;;;;;7367059;19;20015;-77
2022/06/02 22:58:19;;;;;;;7.82;1.92;;;23.60;40.20;;;;;;7367760;19;20386;-76
2022/06/02 23:01:06;;;;;;;3.35;1.55;;;23.50;40.20;;;;;;7361988;19;20018;-76
2022/06/02 23:03:44;;;;;;;3.30;1.73;;;23.50;40.20;;;;;;7367022;19;20621;-77
2022/06/02 23:06:38;;;;;;;2.42;1.60;;;23.50;41.10;;;;;;7367224;19;20039;-77
2022/06/02 23:09:31;;;;;;;4.40;1.60;;;23.40;40.60;;;;;;7369014;19;20018;-75
2022/06/02 23:12:21;;;;;;;8.52;1.90;;;23.40;40.40;;;;;;7367105;19;20029;-76
2022/06/02 23:15:27;;;;;;;2.65;1.52;;;23.40;40.40;;;;;;7367006;19;20026;-77
2022/06/02 23:18:14;;;;;;;5.20;1.65;;;23.30;40.50;;;;;;7365498;19;20018;-76
2022/06/02 23:20:54;;;;;;;2.53;1.40;;;23.30;40.40;;;;;;7368786;19;20015;-79
2022/06/02 23:23:49;;;;;;;4.75;1.67;;;23.30;40.40;;;;;;7369697;19;20061;-76
2022/06/02 23:26:52;;;;;;;1.77;1.40;;;23.30;40.60;;;;;;7363835;19;20014;-75
2022/06/02 23:29:28;;;;;;;3.38;1.73;;;23.20;40.20;;;;;;7369004;19;20018;-76
2022/06/02 23:32:26;;;;;;;3.58;1.90;;;23.20;40.30;;;;;;7364980;19;20011;-76
2022/06/02 23:35:12;;;;;;;3.13;1.40;;;23.20;40.70;;;;;;7365389;19;20342;-76
2022/06/02 23:38:16;;;;;;;3.33;1.63;;;23.10;40.40;;;;;;7364661;19;20026;-76
2022/06/02 23:40:56;;;;;;;1.42;1.33;;;23.10;40.60;;;;;;7364328;19;20026;-76
2022/06/02 23:46:52;;;;;;;2.55;1.60;;;23.00;40.90;;;;;;7259708;19;2004669;-76
2022/06/02 23:49:51;;;;;;;3.08;1.55;;;23.00;40.90;;;;;;7386513;19;20018;-75
2022/06/02 23:52:51;;;;;;;3.20;1.60;;;23.00;40.90;;;;;;7361921;19;20018;-76
2022/06/02 23:55:42;;;;;;;3.30;1.63;;;22.90;41.00;;;;;;7362910;19;20022;-76
2022/06/02 23:58:42;;;;;;;3.75;2.00;;;22.90;40.90;;;;;;7360143;19;20014;-76
